sensor_id;sensor_type;location;lat;lon;timestamp;pressure;altitude;pressure_sealevel;temperature;humidity
6194;BME280;3130;41.564;23.280;2023-02-17T00:00:53;99900.13;;;2.38;80.71
6194;BME280;3130;41.564;23.280;2023-02-17T00:03:21;99886.72;;;2.32;80.14
6194;BME280;3130;41.564;23.280;2023-02-17T00:05:50;100070.22;;;3.42;80.33
6194;BME280;3130;41.564;23.280;2023-02-17T00:08:18;100071.13;;;3.37;81.00
6194;BME280;3130;41.564;23.280;2023-02-17T00:10:54;99999.16;;;2.85;81.23
6194;BME280;3130;41.564;23.280;2023-02-17T00:13:21;100019.19;;;3.04;80.75
6194;BME280;3130;41.564;23.280;2023-02-17T00:15:48;99957.97;;;2.71;81.16
6194;BME280;3130;41.564;23.280;2023-02-17T00:18:16;99940.38;;;2.59;81.05
6194;BME280;3130;41.564;23.280;2023-02-17T00:20:43;100061.81;;;3.39;81.36
6194;BME280;3130;41.564;23.280;2023-02-17T00:23:12;100025.84;;;3.11;81.26
6194;BME280;3130;41.564;23.280;2023-02-17T00:25:39;100063.56;;;3.34;80.76
6194;BME280;3130;41.564;23.280;2023-02-17T00:28:07;99926.31;;;2.36;81.17
6194;BME280;3130;41.564;23.280;2023-02-17T00:30:37;100053.78;;;3.05;81.95
6194;BME280;3130;41.564;23.280;2023-02-17T00:33:05;99940.78;;;2.26;82.06
6194;BME280;3130;41.564;23.280;2023-02-17T00:35:32;99944.97;;;2.27;83.12
6194;BME280;3130;41.564;23.280;2023-02-17T00:37:59;99877.88;;;1.94;82.94
6194;BME280;3130;41.564;23.280;2023-02-17T00:40:28;100066.44;;;3.05;82.97
6194;BME280;3130;41.564;23.280;2023-02-17T00:42:55;99940.59;;;2.43;82.30
6194;BME280;3130;41.564;23.280;2023-02-17T00:45:22;99910.34;;;2.32;82.13
6194;BME280;3130;41.564;23.280;2023-02-17T00:47:50;100041.09;;;3.08;82.51
6194;BME280;3130;41.564;23.280;2023-02-17T00:50:17;99866.88;;;2.00;82.12
6194;BME280;3130;41.564;23.280;2023-02-17T00:52:44;100043.75;;;2.98;82.83
6194;BME280;3130;41.564;23.280;2023-02-17T00:55:11;99944.06;;;2.34;82.82
6194;BME280;3130;41.564;23.280;2023-02-17T00:57:40;100046.34;;;2.92;83.05
6194;BME280;3130;41.564;23.280;2023-02-17T01:00:08;99944.09;;;2.31;82.60
6194;BME280;3130;41.564;23.280;2023-02-17T01:02:36;100027.94;;;2.78;83.41
6194;BME280;3130;41.564;23.280;2023-02-17T01:05:03;99924.03;;;2.12;82.99
6194;BME280;3130;41.564;23.280;2023-02-17T01:07:31;99986.88;;;2.54;83.64
6194;BME280;3130;41.564;23.280;2023-02-17T01:09:58;99999.34;;;2.70;83.38
6194;BME280;3130;41.564;23.280;2023-02-17T01:12:25;99989.22;;;2.69;83.69
6194;BME280;3130;41.564;23.280;2023-02-17T01:14:53;100030.38;;;2.87;82.98
6194;BME280;3130;41.564;23.280;2023-02-17T01:17:21;100032.97;;;2.81;83.26
6194;BME280;3130;41.564;23.280;2023-02-17T01:19:48;99948.38;;;2.28;83.94
6194;BME280;3130;41.564;23.280;2023-02-17T01:22:15;99992.72;;;2.59;83.46
6194;BME280;3130;41.564;23.280;2023-02-17T01:24:43;99846.88;;;1.80;83.69
6194;BME280;3130;41.564;23.280;2023-02-17T01:27:10;99848.47;;;1.85;83.59
6194;BME280;3130;41.564;23.280;2023-02-17T01:29:37;99843.31;;;1.94;83.26
6194;BME280;3130;41.564;23.280;2023-02-17T01:32:05;100012.66;;;2.86;83.03
6194;BME280;3130;41.564;23.280;2023-02-17T01:34:32;100011.78;;;2.88;83.21
6194;BME280;3130;41.564;23.280;2023-02-17T01:37:00;99902.88;;;2.20;82.65
6194;BME280;3130;41.564;23.280;2023-02-17T01:39:27;99853.56;;;1.84;82.35
6194;BME280;3130;41.564;23.280;2023-02-17T01:41:54;100010.22;;;2.78;83.34
6194;BME280;3130;41.564;23.280;2023-02-17T01:44:23;100012.03;;;2.67;82.95
6194;BME280;3130;41.564;23.280;2023-02-17T01:46:51;99885.56;;;1.85;83.53
6194;BME280;3130;41.564;23.280;2023-02-17T01:49:26;99880.75;;;1.61;83.92
6194;BME280;3130;41.564;23.280;2023-02-17T01:51:58;99818.78;;;1.18;84.26
6194;BME280;3130;41.564;23.280;2023-02-17T01:54:32;99921.81;;;1.82;84.61
6194;BME280;3130;41.564;23.280;2023-02-17T01:57:01;99956.19;;;2.04;85.25
6194;BME280;3130;41.564;23.280;2023-02-17T01:59:30;100003.06;;;2.38;84.84
6194;BME280;3130;41.564;23.280;2023-02-17T02:01:59;99822.09;;;1.24;84.90
6194;BME280;3130;41.564;23.280;2023-02-17T02:04:32;99828.78;;;1.31;84.99
6194;BME280;3130;41.564;23.280;2023-02-17T02:07:01;99812.00;;;1.26;84.86
6194;BME280;3130;41.564;23.280;2023-02-17T02:09:31;99839.59;;;1.48;84.15
6194;BME280;3130;41.564;23.280;2023-02-17T02:12:01;99993.00;;;2.32;84.82
6194;BME280;3130;41.564;23.280;2023-02-17T02:14:29;99989.56;;;2.39;84.48
6194;BME280;3130;41.564;23.280;2023-02-17T02:17:05;99951.03;;;2.11;84.49
6194;BME280;3130;41.564;23.280;2023-02-17T02:20:02;99812.06;;;1.21;84.80
6194;BME280;3130;41.564;23.280;2023-02-17T02:22:50;99882.41;;;1.60;85.03
6194;BME280;3130;41.564;23.280;2023-02-17T02:25:37;99796.13;;;1.12;84.50
6194;BME280;3130;41.564;23.280;2023-02-17T02:28:19;99804.44;;;1.23;84.17
6194;BME280;3130;41.564;23.280;2023-02-17T02:31:07;99992.09;;;2.39;84.24
6194;BME280;3130;41.564;23.280;2023-02-17T02:33:48;99930.03;;;2.05;84.24
6194;BME280;3130;41.564;23.280;2023-02-17T02:36:20;99781.84;;;1.09;84.40
6194;BME280;3130;41.564;23.280;2023-02-17T02:38:54;99985.44;;;2.29;84.42
6194;BME280;3130;41.564;23.280;2023-02-17T02:41:29;99983.78;;;2.28;84.43
6194;BME280;3130;41.564;23.280;2023-02-17T02:43:58;99945.25;;;2.02;85.33
6194;BME280;3130;41.564;23.280;2023-02-17T02:46:25;99831.28;;;1.33;85.25
6194;BME280;3130;41.564;23.280;2023-02-17T02:48:54;99801.13;;;1.18;85.13
6194;BME280;3130;41.564;23.280;2023-02-17T02:51:31;99990.50;;;2.29;85.09
6194;BME280;3130;41.564;23.280;2023-02-17T02:54:18;99902.50;;;1.77;84.93
6194;BME280;3130;41.564;23.280;2023-02-17T02:57:01;99990.47;;;2.33;85.10
6194;BME280;3130;41.564;23.280;2023-02-17T02:59:37;99987.09;;;2.30;85.28
6194;BME280;3130;41.564;23.280;2023-02-17T03:02:15;99798.59;;;1.15;85.22
6194;BME280;3130;41.564;23.280;2023-02-17T03:04:51;99989.66;;;2.28;84.87
6194;BME280;3130;41.564;23.280;2023-02-17T03:07:26;99947.00;;;1.94;84.97
6194;BME280;3130;41.564;23.280;2023-02-17T03:09:55;99916.09;;;1.65;84.94
6194;BME280;3130;41.564;23.280;2023-02-17T03:12:24;99999.16;;;2.05;85.49
6194;BME280;3130;41.564;23.280;2023-02-17T03:14:56;99943.94;;;1.61;85.70
6194;BME280;3130;41.564;23.280;2023-02-17T03:17:24;99985.81;;;1.90;85.64
6194;BME280;3130;41.564;23.280;2023-02-17T03:19:52;100006.81;;;1.99;86.13
6194;BME280;3130;41.564;23.280;2023-02-17T03:22:22;99809.78;;;0.90;85.34
6194;BME280;3130;41.564;23.280;2023-02-17T03:24:50;99839.94;;;1.08;85.14
6194;BME280;3130;41.564;23.280;2023-02-17T03:27:18;99845.84;;;1.04;85.40
6194;BME280;3130;41.564;23.280;2023-02-17T03:29:45;100008.41;;;2.08;85.54
6194;BME280;3130;41.564;23.280;2023-02-17T03:32:12;99850.78;;;1.20;85.82
6194;BME280;3130;41.564;23.280;2023-02-17T03:34:42;99960.53;;;1.90;85.76
6194;BME280;3130;41.564;23.280;2023-02-17T03:37:10;99819.81;;;0.98;85.28
6194;BME280;3130;41.564;23.280;2023-02-17T03:39:37;99953.84;;;1.83;85.38
6194;BME280;3130;41.564;23.280;2023-02-17T03:42:05;99900.25;;;1.45;85.24
6194;BME280;3130;41.564;23.280;2023-02-17T03:44:32;100005.06;;;2.06;84.90
6194;BME280;3130;41.564;23.280;2023-02-17T03:47:00;100010.16;;;2.03;85.47
6194;BME280;3130;41.564;23.280;2023-02-17T03:49:27;99967.38;;;1.78;84.78
6194;BME280;3130;41.564;23.280;2023-02-17T03:51:55;99903.75;;;1.31;85.01
6194;BME280;3130;41.564;23.280;2023-02-17T03:54:25;99811.56;;;0.72;85.24
6194;BME280;3130;41.564;23.280;2023-02-17T03:56:53;99927.22;;;1.45;85.92
6194;BME280;3130;41.564;23.280;2023-02-17T03:59:20;99896.25;;;1.16;85.71
6194;BME280;3130;41.564;23.280;2023-02-17T04:01:47;99964.97;;;1.61;85.48
6194;BME280;3130;41.564;23.280;2023-02-17T04:04:14;99946.47;;;1.58;85.38
6194;BME280;3130;41.564;23.280;2023-02-17T04:06:42;100008.47;;;1.99;85.31
6194;BME280;3130;41.564;23.280;2023-02-17T04:09:09;99973.22;;;1.84;85.07
6194;BME280;3130;41.564;23.280;2023-02-17T04:11:38;99808.94;;;0.91;84.98
6194;BME280;3130;41.564;23.280;2023-02-17T04:14:05;99906.91;;;1.54;84.66
6194;BME280;3130;41.564;23.280;2023-02-17T04:16:32;100022.56;;;2.28;85.10
6194;BME280;3130;41.564;23.280;2023-02-17T04:18:59;99827.38;;;0.98;84.65
6194;BME280;3130;41.564;23.280;2023-02-17T04:21:28;99964.09;;;1.65;85.51
6194;BME280;3130;41.564;23.280;2023-02-17T04:23:55;99911.34;;;1.28;85.86
6194;BME280;3130;41.564;23.280;2023-02-17T04:26:22;99992.66;;;1.76;85.58
6194;BME280;3130;41.564;23.280;2023-02-17T04:28:51;100013.00;;;1.63;86.73
6194;BME280;3130;41.564;23.280;2023-02-17T04:31:18;99909.88;;;0.90;87.36
6194;BME280;3130;41.564;23.280;2023-02-17T04:33:46;99983.72;;;1.27;87.68
6194;BME280;3130;41.564;23.280;2023-02-17T04:36:13;99986.31;;;1.20;87.91
6194;BME280;3130;41.564;23.280;2023-02-17T04:38:40;100014.03;;;1.30;88.54
6194;BME280;3130;41.564;23.280;2023-02-17T04:41:07;99916.72;;;0.74;88.62
6194;BME280;3130;41.564;23.280;2023-02-17T04:43:35;100004.75;;;1.35;88.61
6194;BME280;3130;41.564;23.280;2023-02-17T04:46:03;99807.72;;;0.08;88.98
6194;BME280;3130;41.564;23.280;2023-02-17T04:48:30;99864.69;;;0.51;88.67
6194;BME280;3130;41.564;23.280;2023-02-17T04:50:58;99917.47;;;0.88;88.25
6194;BME280;3130;41.564;23.280;2023-02-17T04:53:25;100014.75;;;1.50;88.26
6194;BME280;3130;41.564;23.280;2023-02-17T04:55:52;99950.13;;;1.15;88.80
6194;BME280;3130;41.564;23.280;2023-02-17T04:58:20;100013.06;;;1.52;88.90
6194;BME280;3130;41.564;23.280;2023-02-17T05:00:49;99919.09;;;1.02;88.87
6194;BME280;3130;41.564;23.280;2023-02-17T05:03:17;99910.72;;;0.89;88.72
6194;BME280;3130;41.564;23.280;2023-02-17T05:05:45;99993.81;;;1.33;89.27
6194;BME280;3130;41.564;23.280;2023-02-17T05:08:12;100012.25;;;1.47;88.35
6194;BME280;3130;41.564;23.280;2023-02-17T05:10:39;100008.03;;;1.46;88.39
6194;BME280;3130;41.564;23.280;2023-02-17T05:13:06;99860.47;;;0.54;88.75
6194;BME280;3130;41.564;23.280;2023-02-17T05:15:33;100002.19;;;1.40;87.95
6194;BME280;3130;41.564;23.280;2023-02-17T05:18:20;100015.59;;;1.52;88.49
6194;BME280;3130;41.564;23.280;2023-02-17T05:20:47;99999.63;;;1.49;88.39
6194;BME280;3130;41.564;23.280;2023-02-17T05:23:14;100020.50;;;1.69;88.73
6194;BME280;3130;41.564;23.280;2023-02-17T05:25:41;100024.72;;;1.73;88.08
6194;BME280;3130;41.564;23.280;2023-02-17T05:28:08;100027.25;;;1.70;87.49
6194;BME280;3130;41.564;23.280;2023-02-17T05:30:35;99907.41;;;0.84;87.44
6194;BME280;3130;41.564;23.280;2023-02-17T05:33:02;100035.91;;;1.37;88.02
6194;BME280;3130;41.564;23.280;2023-02-17T05:35:33;100030.09;;;1.20;88.34
6194;BME280;3130;41.564;23.280;2023-02-17T05:38:00;100041.88;;;1.23;88.98
6194;BME280;3130;41.564;23.280;2023-02-17T05:40:27;100037.66;;;1.22;88.65
6194;BME280;3130;41.564;23.280;2023-02-17T05:42:54;100043.53;;;1.25;88.88
6194;BME280;3130;41.564;23.280;2023-02-17T05:45:21;100043.50;;;1.31;89.28
6194;BME280;3130;41.564;23.280;2023-02-17T05:47:48;99941.91;;;0.88;88.71
6194;BME280;3130;41.564;23.280;2023-02-17T05:50:15;100042.50;;;1.61;88.79
6194;BME280;3130;41.564;23.280;2023-02-17T05:52:43;100048.31;;;1.72;88.11
6194;BME280;3130;41.564;23.280;2023-02-17T05:55:10;100035.72;;;1.64;87.81
6194;BME280;3130;41.564;23.280;2023-02-17T05:57:37;100053.34;;;1.75;87.07
6194;BME280;3130;41.564;23.280;2023-02-17T06:00:05;100052.41;;;1.85;87.09
6194;BME280;3130;41.564;23.280;2023-02-17T06:02:32;100033.03;;;1.85;86.87
6194;BME280;3130;41.564;23.280;2023-02-17T06:04:59;100053.13;;;2.03;86.35
6194;BME280;3130;41.564;23.280;2023-02-17T06:07:26;100024.59;;;1.88;85.71
6194;BME280;3130;41.564;23.280;2023-02-17T06:09:55;100058.94;;;2.15;85.90
6194;BME280;3130;41.564;23.280;2023-02-17T06:12:22;100059.72;;;2.20;85.77
6194;BME280;3130;41.564;23.280;2023-02-17T06:14:49;100067.31;;;2.22;85.33
6194;BME280;3130;41.564;23.280;2023-02-17T06:17:16;100060.47;;;2.30;85.44
6194;BME280;3130;41.564;23.280;2023-02-17T06:19:43;100061.31;;;2.33;84.44
6194;BME280;3130;41.564;23.280;2023-02-17T06:22:10;100062.06;;;2.43;83.91
6194;BME280;3130;41.564;23.280;2023-02-17T06:24:37;100065.31;;;2.55;83.98
6194;BME280;3130;41.564;23.280;2023-02-17T06:27:06;100056.97;;;2.47;84.28
6194;BME280;3130;41.564;23.280;2023-02-17T06:29:33;99968.91;;;1.97;84.17
6194;BME280;3130;41.564;23.280;2023-02-17T06:32:00;100045.97;;;2.48;83.43
6194;BME280;3130;41.564;23.280;2023-02-17T06:34:27;100051.91;;;2.44;83.45
6194;BME280;3130;41.564;23.280;2023-02-17T06:36:54;100045.16;;;2.46;83.98
6194;BME280;3130;41.564;23.280;2023-02-17T06:39:21;100049.34;;;2.50;83.27
6194;BME280;3130;41.564;23.280;2023-02-17T06:41:48;100048.63;;;2.38;83.85
6194;BME280;3130;41.564;23.280;2023-02-17T06:44:17;100051.34;;;2.18;84.86
6194;BME280;3130;41.564;23.280;2023-02-17T06:46:44;100059.00;;;2.06;85.43
6194;BME280;3130;41.564;23.280;2023-02-17T06:49:11;100045.53;;;2.04;85.67
6194;BME280;3130;41.564;23.280;2023-02-17T06:51:38;100038.75;;;2.09;85.82
6194;BME280;3130;41.564;23.280;2023-02-17T06:54:05;99991.63;;;2.01;86.00
6194;BME280;3130;41.564;23.280;2023-02-17T06:56:33;100030.78;;;2.50;85.36
6194;BME280;3130;41.564;23.280;2023-02-17T06:59:01;100052.44;;;2.78;84.70
6194;BME280;3130;41.564;23.280;2023-02-17T07:01:30;100051.38;;;2.97;84.11
6194;BME280;3130;41.564;23.280;2023-02-17T07:03:57;99989.13;;;2.78;83.94
6194;BME280;3130;41.564;23.280;2023-02-17T07:06:25;99984.81;;;2.83;83.30
6194;BME280;3130;41.564;23.280;2023-02-17T07:08:52;100052.56;;;3.35;82.04
6194;BME280;3130;41.564;23.280;2023-02-17T07:11:20;100045.69;;;3.43;81.66
6194;BME280;3130;41.564;23.280;2023-02-17T07:13:47;99943.31;;;2.96;81.47
6194;BME280;3130;41.564;23.280;2023-02-17T07:16:14;100057.19;;;3.68;80.46
6194;BME280;3130;41.564;23.280;2023-02-17T07:18:43;99954.19;;;3.00;79.41
6194;BME280;3130;41.564;23.280;2023-02-17T07:21:10;100061.50;;;3.61;79.65
6194;BME280;3130;41.564;23.280;2023-02-17T07:23:37;99945.81;;;2.97;79.54
6194;BME280;3130;41.564;23.280;2023-02-17T07:26:07;100058.66;;;3.82;80.12
6194;BME280;3130;41.564;23.280;2023-02-17T07:28:35;99986.66;;;3.91;79.32
6194;BME280;3130;41.564;23.280;2023-02-17T07:31:06;100053.97;;;5.04;77.96
6194;BME280;3130;41.564;23.280;2023-02-17T07:33:34;100060.59;;;5.90;75.44
6194;BME280;3130;41.564;23.280;2023-02-17T07:36:06;100059.34;;;6.74;71.72
6194;BME280;3130;41.564;23.280;2023-02-17T07:38:34;100035.47;;;7.36;68.69
6194;BME280;3130;41.564;23.280;2023-02-17T07:41:05;100062.00;;;8.40;64.38
6194;BME280;3130;41.564;23.280;2023-02-17T07:43:33;100067.91;;;9.36;61.53
6194;BME280;3130;41.564;23.280;2023-02-17T07:46:00;100071.03;;;9.89;58.17
6194;BME280;3130;41.564;23.280;2023-02-17T07:48:27;100050.00;;;10.23;55.16
6194;BME280;3130;41.564;23.280;2023-02-17T07:50:54;100074.44;;;10.92;52.80
6194;BME280;3130;41.564;23.280;2023-02-17T07:53:23;100065.69;;;11.15;50.18
6194;BME280;3130;41.564;23.280;2023-02-17T07:55:50;100041.34;;;11.05;49.44
6194;BME280;3130;41.564;23.280;2023-02-17T07:58:17;100065.59;;;11.74;48.39
6194;BME280;3130;41.564;23.280;2023-02-17T08:00:45;100004.00;;;11.72;46.59
6194;BME280;3130;41.564;23.280;2023-02-17T08:03:12;100063.66;;;12.48;44.81
6194;BME280;3130;41.564;23.280;2023-02-17T08:05:39;100050.13;;;12.61;44.55
6194;BME280;3130;41.564;23.280;2023-02-17T08:08:07;99988.22;;;12.64;43.72
6194;BME280;3130;41.564;23.280;2023-02-17T08:10:53;100058.00;;;13.24;42.66
6194;BME280;3130;41.564;23.280;2023-02-17T08:13:37;100061.28;;;13.43;42.33
6194;BME280;3130;41.564;23.280;2023-02-17T08:16:04;99951.91;;;12.86;43.08
6194;BME280;3130;41.564;23.280;2023-02-17T08:18:31;100053.78;;;14.01;41.98
6194;BME280;3130;41.564;23.280;2023-02-17T08:21:00;100014.25;;;14.15;40.75
6194;BME280;3130;41.564;23.280;2023-02-17T08:23:27;100052.31;;;14.85;39.84
6194;BME280;3130;41.564;23.280;2023-02-17T08:25:57;100048.13;;;15.25;38.76
6194;BME280;3130;41.564;23.280;2023-02-17T08:28:24;100032.94;;;15.61;38.21
6194;BME280;3130;41.564;23.280;2023-02-17T08:30:51;100048.75;;;16.10;37.03
6194;BME280;3130;41.564;23.280;2023-02-17T08:33:18;100000.78;;;15.92;36.38
6194;BME280;3130;41.564;23.280;2023-02-17T08:35:46;100047.16;;;15.95;36.59
6194;BME280;3130;41.564;23.280;2023-02-17T08:38:13;100047.00;;;15.43;37.54
6194;BME280;3130;41.564;23.280;2023-02-17T08:40:40;100029.81;;;14.87;38.84
6194;BME280;3130;41.564;23.280;2023-02-17T08:43:09;100045.00;;;14.34;39.77
6194;BME280;3130;41.564;23.280;2023-02-17T08:45:38;99996.44;;;13.51;40.66
6194;BME280;3130;41.564;23.280;2023-02-17T08:48:05;99888.94;;;12.28;42.37
6194;BME280;3130;41.564;23.280;2023-02-17T08:50:34;99933.34;;;12.14;43.44
6194;BME280;3130;41.564;23.280;2023-02-17T08:53:01;100018.66;;;12.39;44.64
6194;BME280;3130;41.564;23.280;2023-02-17T08:55:28;100040.22;;;12.20;45.80
6194;BME280;3130;41.564;23.280;2023-02-17T08:57:55;99959.19;;;11.24;47.60
6194;BME280;3130;41.564;23.280;2023-02-17T09:00:24;100040.19;;;11.68;48.76
6194;BME280;3130;41.564;23.280;2023-02-17T09:02:51;100034.97;;;11.69;48.79
6194;BME280;3130;41.564;23.280;2023-02-17T09:05:18;99938.03;;;11.01;49.63
6194;BME280;3130;41.564;23.280;2023-02-17T09:07:46;100027.53;;;11.45;50.25
6194;BME280;3130;41.564;23.280;2023-02-17T09:10:27;99968.88;;;10.99;51.12
6194;BME280;3130;41.564;23.280;2023-02-17T09:12:55;100012.47;;;11.19;51.63
6194;BME280;3130;41.564;23.280;2023-02-17T09:15:26;99882.25;;;10.49;51.16
6194;BME280;3130;41.564;23.280;2023-02-17T09:17:56;100033.84;;;11.19;51.61
6194;BME280;3130;41.564;23.280;2023-02-17T09:20:32;99922.34;;;10.70;51.65
6194;BME280;3130;41.564;23.280;2023-02-17T09:23:01;99987.84;;;11.15;51.73
6194;BME280;3130;41.564;23.280;2023-02-17T09:25:28;99954.38;;;10.98;51.29
6194;BME280;3130;41.564;23.280;2023-02-17T09:27:55;99988.47;;;11.20;51.48
6194;BME280;3130;41.564;23.280;2023-02-17T09:30:24;99888.41;;;10.63;51.36
6194;BME280;3130;41.564;23.280;2023-02-17T09:32:52;99946.41;;;11.04;50.97
6194;BME280;3130;41.564;23.280;2023-02-17T09:35:19;99849.78;;;10.29;51.70
6194;BME280;3130;41.564;23.280;2023-02-17T09:37:48;99966.69;;;11.10;51.33
6194;BME280;3130;41.564;23.280;2023-02-17T09:40:18;100018.16;;;11.25;50.74
6194;BME280;3130;41.564;23.280;2023-02-17T09:42:46;99989.91;;;11.07;51.56
6194;BME280;3130;41.564;23.280;2023-02-17T09:45:17;99912.44;;;10.62;51.40
6194;BME280;3130;41.564;23.280;2023-02-17T09:47:52;99998.38;;;11.09;51.41
6194;BME280;3130;41.564;23.280;2023-02-17T09:50:23;99926.72;;;10.86;51.81
6194;BME280;3130;41.564;23.280;2023-02-17T09:53:00;99836.09;;;10.49;50.64
6194;BME280;3130;41.564;23.280;2023-02-17T09:55:32;99818.28;;;10.46;50.19
6194;BME280;3130;41.564;23.280;2023-02-17T09:58:05;99974.41;;;11.45;50.35
6194;BME280;3130;41.564;23.280;2023-02-17T10:00:38;99871.09;;;11.05;50.22
6194;BME280;3130;41.564;23.280;2023-02-17T10:03:14;99970.09;;;11.83;49.52
6194;BME280;3130;41.564;23.280;2023-02-17T10:05:45;99970.22;;;11.80;48.99
6194;BME280;3130;41.564;23.280;2023-02-17T10:08:21;99927.56;;;11.59;48.46
6194;BME280;3130;41.564;23.280;2023-02-17T10:10:53;99956.53;;;11.79;48.51
6194;BME280;3130;41.564;23.280;2023-02-17T10:13:24;99957.91;;;11.86;48.71
6194;BME280;3130;41.564;23.280;2023-02-17T10:15:58;99962.44;;;11.81;47.71
6194;BME280;3130;41.564;23.280;2023-02-17T10:18:47;99782.63;;;10.77;48.18
6194;BME280;3130;41.564;23.280;2023-02-17T10:21:18;99791.09;;;10.79;48.10
6194;BME280;3130;41.564;23.280;2023-02-17T10:23:47;99951.13;;;11.85;47.72
6194;BME280;3130;41.564;23.280;2023-02-17T10:26:22;99869.97;;;11.46;47.15
6194;BME280;3130;41.564;23.280;2023-02-17T10:28:56;99877.34;;;11.52;46.76
6194;BME280;3130;41.564;23.280;2023-02-17T10:31:38;99929.41;;;11.91;47.89
6194;BME280;3130;41.564;23.280;2023-02-17T10:34:20;99861.97;;;11.69;46.98
6194;BME280;3130;41.564;23.280;2023-02-17T10:36:55;99917.63;;;12.20;46.23
6194;BME280;3130;41.564;23.280;2023-02-17T10:39:38;99913.53;;;12.33;45.57
6194;BME280;3130;41.564;23.280;2023-02-17T10:42:15;99916.44;;;12.43;45.88
6194;BME280;3130;41.564;23.280;2023-02-17T10:44:47;99903.78;;;12.55;45.12
6194;BME280;3130;41.564;23.280;2023-02-17T10:47:15;99884.38;;;12.65;44.77
6194;BME280;3130;41.564;23.280;2023-02-17T10:49:46;99891.78;;;12.87;43.63
6194;BME280;3130;41.564;23.280;2023-02-17T10:52:18;99893.34;;;12.74;44.08
6194;BME280;3130;41.564;23.280;2023-02-17T10:54:52;99826.16;;;12.47;43.56
6194;BME280;3130;41.564;23.280;2023-02-17T10:57:21;99865.69;;;12.77;43.61
6194;BME280;3130;41.564;23.280;2023-02-17T10:59:49;99802.94;;;12.64;43.52
6194;BME280;3130;41.564;23.280;2023-02-17T11:02:19;99871.53;;;13.27;42.56
6194;BME280;3130;41.564;23.280;2023-02-17T11:04:51;99853.91;;;13.35;41.47
6194;BME280;3130;41.564;23.280;2023-02-17T11:07:25;99868.22;;;13.54;41.17
6194;BME280;3130;41.564;23.280;2023-02-17T11:10:01;99769.25;;;13.00;40.90
6194;BME280;3130;41.564;23.280;2023-02-17T11:12:33;99857.56;;;13.76;41.54
6194;BME280;3130;41.564;23.280;2023-02-17T11:15:14;99772.97;;;13.39;40.74
6194;BME280;3130;41.564;23.280;2023-02-17T11:17:42;99798.25;;;13.76;40.74
6194;BME280;3130;41.564;23.280;2023-02-17T11:20:30;99824.91;;;14.04;40.21
6194;BME280;3130;41.564;23.280;2023-02-17T11:23:21;99820.97;;;14.13;39.74
6194;BME280;3130;41.564;23.280;2023-02-17T11:25:59;99729.44;;;13.48;39.25
6194;BME280;3130;41.564;23.280;2023-02-17T11:28:26;99815.72;;;14.14;39.45
6194;BME280;3130;41.564;23.280;2023-02-17T11:30:55;99731.97;;;13.78;39.51
6194;BME280;3130;41.564;23.280;2023-02-17T11:33:28;99733.63;;;13.93;38.63
6194;BME280;3130;41.564;23.280;2023-02-17T11:35:58;99813.59;;;14.48;38.67
6194;BME280;3130;41.564;23.280;2023-02-17T11:38:27;99791.47;;;14.44;38.36
6194;BME280;3130;41.564;23.280;2023-02-17T11:40:57;99699.94;;;13.96;37.96
6194;BME280;3130;41.564;23.280;2023-02-17T11:43:25;99754.81;;;14.25;37.76
6194;BME280;3130;41.564;23.280;2023-02-17T11:46:23;99706.47;;;14.15;38.89
6194;BME280;3130;41.564;23.280;2023-02-17T11:49:01;99700.16;;;14.33;38.24
6194;BME280;3130;41.564;23.280;2023-02-17T11:51:38;99792.28;;;15.11;37.54
6194;BME280;3130;41.564;23.280;2023-02-17T11:54:18;99777.63;;;15.12;36.98
6194;BME280;3130;41.564;23.280;2023-02-17T11:57:04;99693.72;;;14.79;36.85
6194;BME280;3130;41.564;23.280;2023-02-17T11:59:50;99759.84;;;15.34;37.09
6194;BME280;3130;41.564;23.280;2023-02-17T12:02:43;99736.81;;;15.43;36.89
6194;BME280;3130;41.564;23.280;2023-02-17T12:05:23;99766.59;;;15.74;36.19
6194;BME280;3130;41.564;23.280;2023-02-17T12:08:04;99757.81;;;15.76;36.24
6194;BME280;3130;41.564;23.280;2023-02-17T12:10:46;99609.13;;;14.70;35.87
6194;BME280;3130;41.564;23.280;2023-02-17T12:13:30;99688.16;;;15.23;35.82
6194;BME280;3130;41.564;23.280;2023-02-17T12:16:13;99609.69;;;15.00;35.67
6194;BME280;3130;41.564;23.280;2023-02-17T12:18:58;99745.59;;;15.91;35.53
6194;BME280;3130;41.564;23.280;2023-02-17T12:21:37;99607.75;;;15.28;35.13
6194;BME280;3130;41.564;23.280;2023-02-17T12:24:42;99705.03;;;16.04;34.86
6194;BME280;3130;41.564;23.280;2023-02-17T12:27:32;99626.63;;;15.78;34.16
6194;BME280;3130;41.564;23.280;2023-02-17T12:32:52;99579.59;;;15.61;34.23
6194;BME280;3130;41.564;23.280;2023-02-17T12:35:29;99637.94;;;16.13;34.34
6194;BME280;3130;41.564;23.280;2023-02-17T12:38:03;99663.53;;;16.28;33.82
6194;BME280;3130;41.564;23.280;2023-02-17T12:40:38;99713.44;;;16.66;33.64
6194;BME280;3130;41.564;23.280;2023-02-17T12:43:17;99711.75;;;16.78;33.72
6194;BME280;3130;41.564;23.280;2023-02-17T12:45:48;99650.69;;;16.63;33.08
6194;BME280;3130;41.564;23.280;2023-02-17T12:48:23;99641.44;;;16.48;32.44
6194;BME280;3130;41.564;23.280;2023-02-17T12:50:58;99709.59;;;16.95;32.21
6194;BME280;3130;41.564;23.280;2023-02-17T12:53:38;99687.44;;;16.91;32.20
6194;BME280;3130;41.564;23.280;2023-02-17T12:56:29;99586.69;;;16.41;32.17
6194;BME280;3130;41.564;23.280;2023-02-17T12:59:09;99695.66;;;17.19;32.46
6194;BME280;3130;41.564;23.280;2023-02-17T13:01:46;99697.25;;;17.44;32.08
6194;BME280;3130;41.564;23.280;2023-02-17T13:04:17;99702.91;;;17.49;32.16
6194;BME280;3130;41.564;23.280;2023-02-17T13:06:50;99586.94;;;16.84;32.17
6194;BME280;3130;41.564;23.280;2023-02-17T13:09:26;99561.72;;;16.75;31.80
6194;BME280;3130;41.564;23.280;2023-02-17T13:12:09;99657.94;;;17.16;31.95
6194;BME280;3130;41.564;23.280;2023-02-17T13:14:40;99617.00;;;16.97;32.38
6194;BME280;3130;41.564;23.280;2023-02-17T13:17:25;99695.38;;;17.46;32.24
6194;BME280;3130;41.564;23.280;2023-02-17T13:20:04;99560.53;;;16.68;32.15
6194;BME280;3130;41.564;23.280;2023-02-17T13:22:37;99694.81;;;17.64;31.63
6194;BME280;3130;41.564;23.280;2023-02-17T13:25:05;99703.19;;;17.79;32.02
6194;BME280;3130;41.564;23.280;2023-02-17T13:27:36;99574.84;;;17.17;31.79
6194;BME280;3130;41.564;23.280;2023-02-17T13:30:06;99557.78;;;17.15;31.03
6194;BME280;3130;41.564;23.280;2023-02-17T13:32:36;99643.28;;;17.71;31.27
6194;BME280;3130;41.564;23.280;2023-02-17T13:35:05;99691.03;;;18.01;30.69